Terminal Aerodrome Forecast
Issued by NWS Lake Charles, LA

Home | Current Version | Previous Version | Text Only | Print | Product List | Glossary On
Versions: 1 2 3 4 5 6 7 8 9 10 11 12 13 14 15 16 17 18 19 20
466
FTUS44 KLCH 200541
TAFAEX
TAF
KAEX 200541Z 2006/2106 18005KT P6SM FEW050
      TEMPO 2008/2010 5SM BR SCT004
     FM201000 19003KT 2SM BR BKN004
     FM201500 19008KT 4SM BR BKN007 BKN020
     FM201600 20010KT P6SM SCT025 SCT250
     FM210000 16005KT P6SM VCSH BKN007 OVC025=

USA.gov is the U.S. government's official web portal to all federal, state and local government web resources and services.